Estación Meteorológica Peña el Pijo (Robertgarden) [ 01/30/23 14:46:11 CET ]

Fecha Hora Presion(HPa) Temp (°C) Humedad % Rocio (°C) Viento ( m/s) Direccion Lluvia 1Hora(mm) Lluvia 24H(mm) LLuvia Total(mm)
2012-Jul-19 01:01:12 1015.800 16.2 46 4.5         167.83
2012-Jul-19 02:01:12 1015.400 14.9 48 4.0         167.83
2012-Jul-19 03:01:50 1014.800 13.9 51 4.0         167.83
2012-Jul-19 04:05:15 1014.500 12.9 53 3.5         167.83
2012-Jul-19 05:01:15 1014.200 12.8 53 3.4         167.83
2012-Jul-19 06:01:12 1013.700 14.1 48 3.2         167.83
2012-Jul-19 07:01:13 1013.400 12.7 51 2.8         167.83
2012-Jul-19 08:01:16 1013.400 13.9 54 4.7         167.83
2012-Jul-19 09:01:13 1013.500 21.1 48 9.6         167.83
2012-Jul-19 10:01:12 1013.200 28.5 34 11.0         167.83
2012-Jul-19 11:01:13 1012.900 33.4 22 8.6         167.83
2012-Jul-19 12:01:17 1012.700 34.5 16 4.4         167.83
2012-Jul-19 13:01:11 1012.400 35.0 14 2.8 2.9 ENE     167.83
2012-Jul-19 14:01:13 1011.900 36.0 15 4.6         167.83
2012-Jul-19 15:01:13 1011.300 37.6 13 3.9         167.83
2012-Jul-19 16:01:11 1010.700 38.1 13 4.3         167.83
2012-Jul-19 17:01:18 1010.300 35.4 14 3.1         167.83
2012-Jul-19 18:01:11 1009.900 33.3 16 3.4         167.83
2012-Jul-19 19:01:17 1009.700 31.4 20 5.8         167.83
2012-Jul-19 20:01:13 1009.800 31.6 21 6.6         167.83
2012-Jul-19 21:01:16 1010.000 28.3 25 6.2         167.83
2012-Jul-19 22:01:17 1010.500 24.5 31 6.3         167.83
2012-Jul-19 23:01:20 1011.200 21.9 35 5.7         167.83

Temperatura Máxima:38°    Temperatura Mínima:12°
Presión Máxima:1015.800 Hpa    Presión Mínima:1009.700 Hpa


Volver